createdAt,value
2022-11-23T00:03:20.366Z,10.09
2022-11-23T00:08:24.368Z,8.40
2022-11-23T00:13:28.068Z,7.42
2022-11-23T00:18:32.051Z,6.73
2022-11-23T00:23:35.965Z,6.19
2022-11-23T00:28:40.957Z,5.76
2022-11-23T00:33:51.842Z,5.41
2022-11-23T00:38:55.648Z,5.13
2022-11-23T00:43:59.743Z,4.89
2022-11-23T00:49:04.832Z,4.70
2022-11-23T00:54:19.490Z,4.57
2022-11-23T00:59:25.582Z,4.46
2022-11-23T01:04:30.392Z,5.68
2022-11-23T01:09:36.352Z,9.38
2022-11-23T01:14:40.724Z,10.15
2022-11-23T01:19:45.077Z,8.44
2022-11-23T01:24:50.753Z,7.45
2022-11-23T01:29:59.236Z,6.79
2022-11-23T01:40:41.409Z,5.84
2022-11-23T01:46:06.568Z,5.50
2022-11-23T01:51:18.598Z,5.22
2022-11-23T01:56:31.654Z,5.01
2022-11-23T02:01:38.806Z,4.85
2022-11-23T02:07:07.492Z,4.72
2022-11-23T02:12:14.900Z,4.60
2022-11-23T02:17:22.321Z,5.84
2022-11-23T02:22:48.497Z,9.48
2022-11-23T02:27:52.981Z,10.32
2022-11-23T02:32:57.411Z,8.71
2022-11-23T02:38:09.030Z,7.70
2022-11-23T02:43:13.191Z,7.04
2022-11-23T02:48:23.135Z,6.51
2022-11-23T02:53:27.426Z,6.06
2022-11-23T02:58:31.506Z,5.73
2022-11-23T03:03:38.008Z,5.47
2022-11-23T03:08:42.023Z,5.27
2022-11-23T03:13:45.739Z,5.10
2022-11-23T03:18:53.367Z,4.98
2022-11-23T03:24:00.456Z,6.07
2022-11-23T03:29:05.546Z,9.80
2022-11-23T03:34:10.470Z,10.24
2022-11-23T03:39:15.332Z,8.62
2022-11-23T03:44:38.437Z,7.65
2022-11-23T03:49:44.438Z,7.03
2022-11-23T03:54:48.674Z,6.52
2022-11-23T03:59:52.837Z,6.10
2022-11-23T04:04:56.688Z,5.75
2022-11-23T04:10:20.886Z,5.47
2022-11-23T04:15:47.939Z,5.24
2022-11-23T04:20:52.145Z,5.06
2022-11-23T04:26:02.152Z,4.94
2022-11-23T04:31:08.243Z,6.19
2022-11-23T04:36:21.075Z,9.86
2022-11-23T04:41:25.428Z,10.24
2022-11-23T04:46:33.583Z,8.53
2022-11-23T04:52:13.402Z,7.54
2022-11-23T04:57:22.371Z,6.81
2022-11-23T05:02:27.857Z,6.28
2022-11-23T05:07:50.680Z,5.80
2022-11-23T05:12:58.670Z,5.42
2022-11-23T05:18:19.415Z,5.13
2022-11-23T05:23:24.275Z,4.87
2022-11-23T05:28:40.683Z,4.75
2022-11-23T05:33:46.545Z,4.61
2022-11-23T05:38:52.955Z,4.46
2022-11-23T05:44:03.449Z,5.72
2022-11-23T05:49:10.659Z,9.47
2022-11-23T05:54:15.381Z,10.44
2022-11-23T05:59:31.065Z,8.63
2022-11-23T06:04:38.703Z,7.55
2022-11-23T06:09:45.334Z,6.77
2022-11-23T06:14:54.208Z,6.15
2022-11-23T06:19:59.791Z,5.65
2022-11-23T06:25:10.106Z,5.27
2022-11-23T06:30:15.643Z,4.96
2022-11-23T06:35:31.326Z,4.69
2022-11-23T06:40:39.929Z,4.52
2022-11-23T06:45:43.756Z,4.41
2022-11-23T06:50:51.010Z,5.66
2022-11-23T06:56:00.557Z,9.39
2022-11-23T07:01:08.245Z,10.21
2022-11-23T07:06:26.559Z,8.35
2022-11-23T07:11:41.500Z,7.34
2022-11-23T07:16:54.966Z,6.64
2022-11-23T07:22:09.199Z,6.10
2022-11-23T07:27:17.673Z,5.67
2022-11-23T07:32:22.360Z,5.36
2022-11-23T07:37:27.012Z,5.14
2022-11-23T07:42:45.370Z,4.96
2022-11-23T07:48:02.240Z,4.83
2022-11-23T07:53:07.439Z,6.13
2022-11-23T07:58:12.127Z,9.83
2022-11-23T08:03:33.895Z,10.37
2022-11-23T08:08:43.249Z,8.57
2022-11-23T08:13:55.681Z,7.63
2022-11-23T08:18:59.339Z,6.95
2022-11-23T08:24:03.743Z,6.43
2022-11-23T08:29:07.911Z,6.01
2022-11-23T08:34:16.730Z,5.69
2022-11-23T08:39:42.037Z,5.46
2022-11-23T08:44:49.344Z,5.29
2022-11-23T08:49:58.802Z,5.15
2022-11-23T08:55:04.815Z,6.44
2022-11-23T09:00:09.035Z,10.06
2022-11-23T09:06:03.929Z,9.62
2022-11-23T09:11:13.816Z,7.96
2022-11-23T09:16:20.179Z,7.26
2022-11-23T09:21:24.759Z,6.76
2022-11-23T09:26:29.469Z,6.34
2022-11-23T09:31:33.496Z,5.98
2022-11-23T09:36:38.845Z,5.68
2022-11-23T09:42:35.930Z,5.50
2022-11-23T09:48:09.042Z,5.35
2022-11-23T09:53:21.448Z,6.77
2022-11-23T09:58:32.961Z,10.43
2022-11-23T10:03:48.721Z,11.01
2022-11-23T10:09:13.390Z,9.17
2022-11-23T10:14:36.554Z,8.08
2022-11-23T10:20:15.262Z,7.38
2022-11-23T10:25:22.843Z,6.80
2022-11-23T11:53:11.775Z,8.57
2022-11-23T12:04:53.114Z,8.54
2022-11-23T12:17:46.612Z,6.90
2022-11-23T12:24:27.116Z,6.28
2022-11-23T12:29:57.693Z,5.94
2022-11-23T12:41:41.089Z,7.40
2022-11-23T12:47:03.755Z,10.93
2022-11-23T12:53:00.616Z,10.13
2022-11-23T12:58:16.527Z,8.42
2022-11-23T13:04:56.097Z,7.57
2022-11-23T13:10:05.337Z,6.91
2022-11-23T13:15:50.686Z,6.51
2022-11-23T13:21:20.485Z,6.17
2022-11-23T13:26:30.117Z,5.91
2022-11-23T13:31:36.260Z,5.73
2022-11-23T13:37:11.086Z,6.91
2022-11-23T13:42:15.321Z,10.76
2022-11-23T13:47:27.824Z,10.58
2022-11-23T13:52:33.110Z,9.06
2022-11-23T13:57:57.371Z,8.19
2022-11-23T14:03:41.119Z,7.58
2022-11-23T14:08:47.672Z,7.07
2022-11-23T14:25:25.188Z,6.17
2022-11-23T14:30:40.424Z,5.97
2022-11-23T14:35:59.383Z,5.84
2022-11-23T14:41:15.495Z,5.82
2022-11-23T14:46:22.070Z,7.20
2022-11-23T14:51:29.095Z,10.80
2022-11-23T14:56:36.056Z,10.64
2022-11-23T15:02:41.101Z,8.95
2022-11-23T15:08:17.854Z,8.01
2022-11-23T15:14:08.680Z,7.34
2022-11-23T15:19:29.590Z,6.90
2022-11-23T15:24:52.115Z,6.53
2022-11-23T15:29:58.898Z,6.24
2022-11-23T15:35:11.014Z,6.01
2022-11-23T15:40:16.959Z,5.84
2022-11-23T15:45:59.822Z,5.72
2022-11-23T15:51:06.829Z,7.30
2022-11-23T15:56:22.873Z,10.87
2022-11-23T16:01:26.688Z,10.78
2022-11-23T16:06:41.927Z,9.21
2022-11-23T16:11:46.253Z,8.30
2022-11-23T16:17:15.295Z,7.68
2022-11-23T16:22:37.145Z,7.16
2022-11-23T16:27:45.018Z,6.74
2022-11-23T16:32:48.396Z,6.42
2022-11-23T16:44:12.985Z,5.92
2022-11-23T16:49:19.574Z,5.78
2022-11-23T16:54:25.085Z,5.65
2022-11-23T16:59:28.715Z,6.88
2022-11-23T17:04:35.144Z,10.52
2022-11-23T17:11:22.328Z,10.60
2022-11-23T17:16:08.991Z,8.91
2022-11-23T17:21:39.747Z,8.12
2022-11-23T17:26:53.551Z,7.49
2022-11-23T17:31:57.432Z,7.05
2022-11-23T17:37:02.626Z,6.67
2022-11-23T17:42:06.969Z,6.37
2022-11-23T17:47:34.571Z,6.13
2022-11-23T17:52:52.735Z,5.91
2022-11-23T17:57:56.610Z,5.77
2022-11-23T18:02:59.758Z,5.66
2022-11-23T18:08:03.527Z,6.85
2022-11-23T18:13:06.485Z,10.48
2022-11-23T18:18:09.801Z,10.88
2022-11-23T18:23:12.791Z,9.21
2022-11-23T18:28:18.852Z,8.28
2022-11-23T18:33:22.581Z,7.66
2022-11-23T18:38:25.736Z,7.16
2022-11-23T18:43:28.774Z,6.75
2022-11-23T18:48:32.509Z,6.40
2022-11-23T18:53:36.434Z,6.13
2022-11-23T18:58:42.136Z,5.92
2022-11-23T19:03:47.338Z,5.77
2022-11-23T19:09:01.009Z,6.89
2022-11-23T19:14:12.832Z,10.54
2022-11-23T19:19:20.236Z,11.13
2022-11-23T19:24:41.667Z,9.38
2022-11-23T19:30:15.814Z,8.34
2022-11-23T19:36:06.933Z,7.62
2022-11-23T19:41:11.729Z,7.12
2022-11-23T19:46:47.297Z,6.69
2022-11-23T19:51:54.056Z,6.33
2022-11-23T19:57:08.015Z,6.09
2022-11-23T20:02:23.810Z,5.88
2022-11-23T20:07:28.020Z,5.76
2022-11-23T20:12:32.288Z,7.21
2022-11-23T20:17:52.221Z,10.97
2022-11-23T20:22:58.901Z,11.06
2022-11-23T20:28:11.922Z,9.39
2022-11-23T20:33:19.938Z,8.39
2022-11-23T20:38:24.584Z,7.70
2022-11-23T20:43:31.067Z,7.16
2022-11-23T20:48:39.831Z,6.79
2022-11-23T20:54:27.721Z,6.45
2022-11-23T20:59:36.894Z,6.15
2022-11-23T21:04:47.225Z,5.92
2022-11-23T21:09:59.554Z,5.76
2022-11-23T21:15:20.333Z,5.62
2022-11-23T21:20:25.570Z,6.81
2022-11-23T21:25:38.859Z,10.46
2022-11-23T21:30:56.719Z,10.44
2022-11-23T21:36:07.287Z,8.87
2022-11-23T21:47:03.996Z,7.40
2022-11-23T21:52:10.795Z,7.00
2022-11-23T21:57:19.077Z,6.65
2022-11-23T22:02:28.278Z,6.34
2022-11-23T22:07:47.447Z,6.09
2022-11-23T22:13:25.265Z,5.88
2022-11-23T22:18:40.252Z,5.70
2022-11-23T22:24:04.096Z,5.60
2022-11-23T22:29:14.670Z,6.15
2022-11-23T22:34:23.840Z,9.91
2022-11-23T22:39:28.518Z,11.16
2022-11-23T22:45:02.967Z,9.47
2022-11-23T22:50:08.381Z,8.35
2022-11-23T22:55:16.010Z,7.68
2022-11-23T23:00:30.792Z,7.12
2022-11-23T23:05:36.271Z,6.67
2022-11-23T23:10:44.644Z,6.33
2022-11-23T23:16:04.743Z,6.06
2022-11-23T23:21:14.906Z,5.85
2022-11-23T23:26:36.959Z,5.68
2022-11-23T23:31:47.120Z,5.57
2022-11-23T23:42:36.657Z,5.40
2022-11-23T23:48:16.101Z,7.10
2022-11-23T23:59:25.958Z,10.04
